Time;durP1;ratioP1;P1;durP2;ratioP2;P2;SDS_P1;SDS_P2;PMS_P1;PMS_P2;Temp;Humidity;BMP_temperature;BMP_pressure;BME280_temperature;BME280_humidity;BME280_pressure;Samples;Min_cycle;Max_cycle;Signal;HPM_P1;HPM_P2
2022/04/14 00:00:05;;;;;;;2.63;2.43;;;18.40;44.30;;;;;;5065964;28;20229;-56
2022/04/14 00:02:31;;;;;;;2.40;2.30;;;18.40;44.40;;;;;;5064197;28;20384;-55
2022/04/14 00:04:56;;;;;;;2.50;2.30;;;18.40;44.40;;;;;;5061102;28;20501;-56
2022/04/14 00:07:22;;;;;;;4.17;2.37;;;18.40;44.30;;;;;;5063952;28;20703;-56
2022/04/14 00:09:48;;;;;;;2.13;2.03;;;18.40;44.40;;;;;;5059954;28;20218;-56
2022/04/14 00:12:14;;;;;;;2.30;2.20;;;18.40;45.10;;;;;;5061314;28;20459;-56
2022/04/14 00:14:39;;;;;;;2.30;2.20;;;18.40;44.40;;;;;;5063381;28;20221;-55
2022/04/14 00:17:06;;;;;;;2.43;2.33;;;18.40;44.50;;;;;;5060839;28;20242;-55
2022/04/14 00:19:31;;;;;;;2.30;2.20;;;18.40;44.50;;;;;;5063973;28;20229;-57
2022/04/14 00:21:57;;;;;;;2.67;2.50;;;18.40;44.50;;;;;;5064347;28;20457;-55
2022/04/14 00:24:22;;;;;;;2.40;2.30;;;18.50;44.50;;;;;;5048958;28;20230;-56
2022/04/14 00:26:48;;;;;;;2.10;2.00;;;18.40;44.50;;;;;;5062209;28;20228;-56
2022/04/14 00:29:14;;;;;;;2.53;2.33;;;18.40;44.50;;;;;;5063851;28;20237;-56
2022/04/14 00:31:39;;;;;;;2.67;2.47;;;18.40;44.50;;;;;;5056705;28;20221;-56
2022/04/14 00:34:05;;;;;;;2.43;2.33;;;18.40;44.50;;;;;;5056468;28;20305;-55
2022/04/14 00:36:33;;;;;;;1.90;1.80;;;18.40;44.50;;;;;;5061938;28;20318;-57
2022/04/14 00:38:59;;;;;;;2.20;2.10;;;18.40;44.50;;;;;;5061106;28;20218;-56
2022/04/14 00:41:27;;;;;;;2.40;2.27;;;18.40;44.50;;;;;;5060734;28;20436;-57
2022/04/14 00:43:53;;;;;;;2.10;2.00;;;18.40;44.50;;;;;;5063085;28;21039;-57
2022/04/14 00:46:19;;;;;;;2.50;2.40;;;18.40;44.50;;;;;;5064336;28;20432;-56
2022/04/14 00:48:46;;;;;;;2.40;2.30;;;18.40;44.50;;;;;;5059212;28;20456;-58
2022/04/14 00:51:12;;;;;;;2.50;2.30;;;18.40;44.50;;;;;;5056951;28;20425;-56
2022/04/14 00:53:39;;;;;;;2.43;2.33;;;18.40;44.50;;;;;;5059426;28;20432;-56
2022/04/14 00:56:06;;;;;;;2.43;2.33;;;18.40;44.50;;;;;;5061035;28;20395;-56
2022/04/14 00:58:32;;;;;;;2.40;2.27;;;18.40;44.50;;;;;;5066195;28;20432;-57
2022/04/14 01:00:58;;;;;;;2.20;2.10;;;18.40;44.50;;;;;;5060126;28;20520;-56
2022/04/14 01:03:24;;;;;;;2.30;2.20;;;18.40;44.50;;;;;;5040977;28;20797;-56
2022/04/14 01:05:50;;;;;;;2.30;2.20;;;18.40;44.50;;;;;;5058330;28;20475;-56
2022/04/14 01:08:18;;;;;;;2.50;2.40;;;18.40;44.50;;;;;;5063547;28;20976;-56
2022/04/14 01:10:48;;;;;;;2.70;2.60;;;18.40;44.50;;;;;;5055420;28;20429;-55
2022/04/14 01:13:18;;;;;;;2.30;2.20;;;18.40;44.60;;;;;;5062065;28;20447;-56
2022/04/14 01:15:48;;;;;;;2.50;2.40;;;18.40;44.50;;;;;;5058084;28;20452;-56
2022/04/14 01:18:15;;;;;;;2.40;2.30;;;18.40;44.60;;;;;;5060601;28;20525;-56
2022/04/14 01:20:42;;;;;;;2.60;2.50;;;18.40;44.60;;;;;;5058914;28;20422;-56
2022/04/14 01:23:09;;;;;;;2.20;2.10;;;18.40;44.50;;;;;;5064561;28;20978;-56
2022/04/14 01:25:35;;;;;;;2.50;2.40;;;18.40;44.50;;;;;;5061440;28;20520;-56
2022/04/14 01:28:02;;;;;;;2.03;1.93;;;18.40;44.50;;;;;;5061974;28;20502;-56
2022/04/14 01:30:29;;;;;;;2.67;2.57;;;18.40;44.60;;;;;;5059519;28;20418;-56
2022/04/14 01:32:55;;;;;;;2.43;2.33;;;18.40;44.60;;;;;;5058320;28;20474;-56
2022/04/14 01:35:21;;;;;;;2.00;1.90;;;18.40;44.60;;;;;;5062496;28;20457;-55
2022/04/14 01:37:46;;;;;;;2.27;2.17;;;18.40;44.60;;;;;;5060520;28;20230;-56
2022/04/14 01:40:12;;;;;;;2.50;2.40;;;18.40;44.60;;;;;;5056288;28;21006;-55
2022/04/14 01:42:38;;;;;;;2.53;2.43;;;18.40;44.60;;;;;;5062550;28;20228;-56
2022/04/14 01:45:09;;;;;;;2.70;2.60;;;18.40;44.60;;;;;;5057800;28;20221;-56
2022/04/14 01:47:42;;;;;;;2.40;2.20;;;18.40;44.60;;;;;;5056338;28;20447;-56
2022/04/14 01:50:09;;;;;;;2.67;2.57;;;18.40;44.70;;;;;;5063111;28;20920;-56
2022/04/14 01:52:36;;;;;;;2.63;2.43;;;18.40;44.60;;;;;;5057426;28;20462;-56
2022/04/14 01:55:03;;;;;;;2.57;2.47;;;18.40;44.60;;;;;;5061640;28;20816;-56
2022/04/14 01:57:29;;;;;;;2.60;2.40;;;18.40;44.70;;;;;;5058162;28;20508;-56
2022/04/14 01:59:56;;;;;;;2.37;2.27;;;18.40;44.60;;;;;;5062617;28;20425;-56
2022/04/14 02:02:22;;;;;;;2.00;1.90;;;18.40;44.70;;;;;;5060346;28;20970;-56
2022/04/14 02:04:48;;;;;;;2.83;2.73;;;18.40;44.70;;;;;;5060198;28;20421;-56
2022/04/14 02:07:14;;;;;;;2.50;2.40;;;18.40;44.70;;;;;;5061315;28;21066;-56
2022/04/14 02:09:39;;;;;;;2.70;2.50;;;18.40;44.70;;;;;;5053091;28;20231;-56
2022/04/14 02:12:05;;;;;;;2.43;2.33;;;18.40;44.70;;;;;;5060427;28;20440;-56
2022/04/14 02:14:31;;;;;;;2.20;2.10;;;18.40;44.70;;;;;;5064020;28;20229;-56
2022/04/14 02:16:56;;;;;;;2.47;2.37;;;18.40;44.70;;;;;;5057230;28;20614;-56
2022/04/14 02:19:22;;;;;;;2.53;2.43;;;18.40;44.70;;;;;;5063141;28;20230;-55
2022/04/14 02:21:48;;;;;;;2.27;2.17;;;18.40;44.70;;;;;;5059791;28;20233;-56
2022/04/14 02:24:13;;;;;;;2.73;2.63;;;18.40;44.80;;;;;;5058520;28;20973;-56
2022/04/14 02:26:39;;;;;;;2.70;2.60;;;18.40;44.80;;;;;;5055778;28;20225;-57
2022/04/14 02:29:04;;;;;;;2.63;2.43;;;18.40;44.70;;;;;;5062182;28;20214;-56
2022/04/14 02:31:30;;;;;;;2.57;2.47;;;18.40;44.70;;;;;;5060883;28;20244;-57
2022/04/14 02:33:55;;;;;;;2.23;2.13;;;18.40;44.80;;;;;;5062024;28;20327;-56
2022/04/14 02:36:21;;;;;;;2.50;2.40;;;18.40;44.80;;;;;;5045625;28;20691;-56
2022/04/14 02:38:47;;;;;;;2.33;2.23;;;18.40;44.80;;;;;;5058486;28;20308;-56
2022/04/14 02:41:12;;;;;;;2.70;2.60;;;18.40;44.70;;;;;;5058482;28;20725;-56
2022/04/14 02:43:38;;;;;;;2.53;2.43;;;18.40;44.80;;;;;;5061488;28;20229;-56
2022/04/14 02:46:04;;;;;;;2.47;2.37;;;18.40;44.80;;;;;;5059786;28;20229;-56
2022/04/14 02:48:31;;;;;;;2.53;2.40;;;18.40;44.80;;;;;;5060980;28;20226;-55
2022/04/14 02:50:56;;;;;;;2.13;2.03;;;18.40;44.80;;;;;;5055440;28;20430;-56
2022/04/14 02:53:22;;;;;;;2.47;2.37;;;18.40;44.80;;;;;;5055887;28;20838;-55
2022/04/14 02:55:48;;;;;;;2.40;2.30;;;18.40;44.90;;;;;;5061978;28;20237;-56
2022/04/14 02:58:14;;;;;;;2.90;2.70;;;18.40;44.80;;;;;;5060685;28;20686;-56
2022/04/14 03:00:39;;;;;;;2.40;2.30;;;18.40;44.80;;;;;;5061423;28;20226;-56
2022/04/14 03:03:05;;;;;;;2.73;2.53;;;18.40;44.80;;;;;;5055195;28;21176;-56
2022/04/14 03:05:30;;;;;;;2.67;2.57;;;18.40;45.60;;;;;;5062090;28;20666;-55
2022/04/14 03:07:56;;;;;;;2.57;2.37;;;18.40;44.80;;;;;;5054337;28;20226;-56
2022/04/14 03:10:21;;;;;;;2.53;2.43;;;18.40;44.80;;;;;;5058365;28;20344;-55
2022/04/14 03:12:47;;;;;;;2.50;2.40;;;18.40;44.80;;;;;;5062560;28;20229;-56
2022/04/14 03:15:16;;;;;;;2.67;2.57;;;18.40;44.80;;;;;;5059671;28;20218;-56
2022/04/14 03:17:42;;;;;;;2.37;2.27;;;18.40;44.90;;;;;;5042836;28;20230;-55
2022/04/14 03:20:09;;;;;;;2.30;2.10;;;18.40;44.80;;;;;;5060187;28;20440;-55
2022/04/14 03:22:35;;;;;;;2.17;2.07;;;18.40;44.90;;;;;;5059381;28;20422;-56
2022/04/14 03:25:03;;;;;;;2.70;2.60;;;18.40;44.80;;;;;;5052169;28;20469;-56
2022/04/14 03:27:29;;;;;;;3.03;2.63;;;18.40;44.80;;;;;;5063506;28;20478;-56
2022/04/14 03:29:54;;;;;;;2.30;2.20;;;18.40;44.90;;;;;;5057581;28;20456;-56
2022/04/14 03:32:22;;;;;;;2.63;2.53;;;18.40;44.90;;;;;;5064601;28;20275;-55
2022/04/14 03:34:48;;;;;;;2.97;2.77;;;18.40;44.90;;;;;;5060062;28;20226;-56
2022/04/14 03:37:13;;;;;;;2.70;2.60;;;18.40;44.90;;;;;;5062796;28;20444;-56
2022/04/14 03:39:39;;;;;;;2.57;2.47;;;18.40;44.90;;;;;;5054252;28;20929;-56
2022/04/14 03:42:05;;;;;;;2.60;2.50;;;18.40;44.90;;;;;;5056899;28;20225;-56
2022/04/14 03:44:30;;;;;;;2.30;2.20;;;18.40;44.80;;;;;;5055090;28;20275;-56
2022/04/14 03:46:56;;;;;;;2.70;2.50;;;18.40;44.90;;;;;;5057458;28;20312;-56
2022/04/14 03:49:21;;;;;;;2.20;2.10;;;18.40;44.90;;;;;;5061098;28;20639;-55
2022/04/14 03:51:47;;;;;;;2.23;2.13;;;18.40;44.90;;;;;;5057922;28;20253;-55
2022/04/14 03:54:12;;;;;;;2.20;2.10;;;18.40;44.90;;;;;;5056760;28;20230;-55
2022/04/14 03:56:38;;;;;;;2.30;2.20;;;18.40;44.90;;;;;;5065137;28;20237;-55
2022/04/14 03:59:03;;;;;;;2.33;2.23;;;18.40;44.90;;;;;;5063001;28;20674;-55
2022/04/14 04:01:29;;;;;;;3.10;2.43;;;18.40;44.90;;;;;;5059547;28;20685;-56
2022/04/14 04:03:54;;;;;;;2.90;2.70;;;18.40;44.90;;;;;;5044511;28;20221;-56
2022/04/14 04:06:20;;;;;;;2.37;2.27;;;18.40;44.90;;;;;;5062571;28;20226;-56
2022/04/14 04:08:45;;;;;;;2.37;2.27;;;18.40;44.90;;;;;;5059391;28;20218;-56
2022/04/14 04:11:11;;;;;;;2.80;2.70;;;18.40;45.70;;;;;;5060086;28;20225;-56
2022/04/14 04:13:37;;;;;;;2.73;2.53;;;18.40;44.90;;;;;;5065745;28;20258;-56
2022/04/14 04:16:02;;;;;;;2.80;2.60;;;18.40;44.90;;;;;;5061306;28;20257;-55
2022/04/14 04:18:30;;;;;;;2.73;2.60;;;18.40;44.90;;;;;;5062279;28;20230;-56
2022/04/14 04:20:56;;;;;;;2.70;2.50;;;18.40;44.90;;;;;;5062564;28;20233;-56
2022/04/14 04:23:22;;;;;;;2.50;2.30;;;18.40;44.90;;;;;;5063201;28;20432;-56
2022/04/14 04:25:49;;;;;;;2.10;2.00;;;18.40;45.00;;;;;;5057864;28;20233;-56
2022/04/14 04:28:15;;;;;;;2.60;2.50;;;18.40;44.90;;;;;;5066725;28;20253;-56
2022/04/14 04:30:40;;;;;;;2.37;2.27;;;18.40;45.00;;;;;;5060107;28;20436;-56
2022/04/14 04:33:06;;;;;;;2.43;2.33;;;18.40;45.00;;;;;;5062911;28;20225;-55
2022/04/14 04:35:32;;;;;;;2.40;2.30;;;18.40;45.00;;;;;;5060680;28;20245;-55
2022/04/14 04:37:57;;;;;;;2.87;2.77;;;18.40;45.00;;;;;;5056616;28;20249;-55
2022/04/14 04:40:23;;;;;;;2.50;2.30;;;18.40;45.00;;;;;;5061826;28;20253;-55
2022/04/14 04:42:48;;;;;;;2.50;2.40;;;18.40;44.90;;;;;;5060539;28;20244;-56
2022/04/14 04:45:14;;;;;;;2.27;2.17;;;18.40;45.00;;;;;;5057053;28;20226;-58
2022/04/14 04:47:39;;;;;;;2.60;2.40;;;18.40;44.90;;;;;;5062980;28;20224;-57
2022/04/14 04:50:07;;;;;;;2.20;2.10;;;18.40;44.90;;;;;;5063014;28;20321;-56
2022/04/14 04:52:37;;;;;;;2.30;2.20;;;18.40;44.90;;;;;;5043251;28;20287;-60
2022/04/14 04:55:03;;;;;;;2.40;2.30;;;18.40;44.90;;;;;;5059359;28;20487;-58
2022/04/14 04:57:28;;;;;;;2.40;2.30;;;18.40;44.90;;;;;;5063062;28;20478;-57
2022/04/14 04:59:54;;;;;;;2.03;1.93;;;18.40;44.90;;;;;;5058107;28;20441;-57
2022/04/14 05:02:19;;;;;;;2.23;2.10;;;18.40;44.90;;;;;;5059776;28;20237;-56
2022/04/14 05:04:45;;;;;;;2.47;2.30;;;18.40;44.90;;;;;;5059580;28;20221;-56
2022/04/14 05:07:10;;;;;;;2.50;2.30;;;18.40;44.90;;;;;;5058637;28;20238;-56
2022/04/14 05:09:36;;;;;;;2.10;2.00;;;18.40;44.90;;;;;;5064628;28;20217;-56
2022/04/14 05:12:03;;;;;;;6.30;2.20;;;18.40;44.90;;;;;;5061943;28;20229;-56
2022/04/14 05:14:29;;;;;;;2.47;2.37;;;18.40;44.80;;;;;;5049240;28;20230;-56
2022/04/14 05:16:55;;;;;;;2.60;2.30;;;18.50;44.90;;;;;;5054433;28;20468;-56
2022/04/14 05:19:20;;;;;;;2.40;2.30;;;18.40;44.80;;;;;;5060848;28;20426;-57
2022/04/14 05:21:48;;;;;;;2.37;2.17;;;18.40;44.80;;;;;;5055969;28;20219;-56
2022/04/14 05:24:14;;;;;;;2.43;2.33;;;18.50;44.80;;;;;;5061955;28;20306;-57
2022/04/14 05:26:39;;;;;;;2.13;2.03;;;18.50;44.80;;;;;;5062380;28;20500;-57
2022/04/14 05:29:05;;;;;;;2.20;2.10;;;18.50;44.80;;;;;;5059629;28;20230;-58
2022/04/14 05:31:30;;;;;;;2.50;2.30;;;18.50;44.80;;;;;;5059878;28;20293;-57
2022/04/14 05:33:57;;;;;;;2.33;2.23;;;18.50;44.80;;;;;;5058544;28;20214;-57
2022/04/14 05:36:22;;;;;;;2.73;2.53;;;18.50;44.80;;;;;;5043829;28;20245;-57
2022/04/14 05:38:48;;;;;;;2.43;2.33;;;18.50;44.70;;;;;;5054863;28;20465;-58
2022/04/14 05:41:13;;;;;;;2.33;2.23;;;18.50;44.70;;;;;;5062836;28;20225;-57
2022/04/14 05:43:39;;;;;;;3.23;2.63;;;18.50;44.70;;;;;;5062636;28;20272;-57
2022/04/14 05:46:04;;;;;;;2.60;2.50;;;18.50;44.70;;;;;;5056368;28;20238;-56
2022/04/14 05:48:30;;;;;;;3.07;2.40;;;18.50;44.70;;;;;;5059090;28;20719;-56
2022/04/14 05:50:55;;;;;;;2.27;2.17;;;18.50;44.70;;;;;;5064669;28;20681;-56
2022/04/14 05:53:26;;;;;;;2.50;2.30;;;18.50;44.60;;;;;;5058848;28;20761;-56
2022/04/14 05:55:52;;;;;;;2.13;2.03;;;18.60;44.70;;;;;;5063691;28;20242;-56
2022/04/14 05:58:18;;;;;;;2.53;2.37;;;18.50;44.70;;;;;;5066019;28;20886;-56
2022/04/14 06:00:44;;;;;;;2.30;2.20;;;18.50;44.70;;;;;;5062497;28;20462;-56
2022/04/14 06:03:10;;;;;;;2.53;2.43;;;18.60;44.80;;;;;;5065123;28;20225;-56
2022/04/14 06:05:36;;;;;;;2.60;2.40;;;18.50;44.70;;;;;;5060141;28;20953;-58
2022/04/14 06:08:02;;;;;;;2.20;2.10;;;18.50;44.70;;;;;;5059745;28;20445;-59
2022/04/14 06:10:28;;;;;;;2.17;2.00;;;18.60;44.70;;;;;;5061697;28;20232;-56
2022/04/14 06:12:55;;;;;;;2.60;2.33;;;18.60;44.70;;;;;;5043384;28;20484;-58
2022/04/14 06:15:20;;;;;;;2.40;2.30;;;18.50;44.60;;;;;;5055852;28;20968;-57
2022/04/14 06:17:46;;;;;;;2.50;2.40;;;18.50;44.70;;;;;;5061056;28;20425;-57
2022/04/14 06:20:12;;;;;;;2.37;2.20;;;18.60;44.70;;;;;;5044712;28;20245;-56
2022/04/14 06:22:40;;;;;;;2.50;2.40;;;18.60;44.70;;;;;;5063731;28;20343;-57
2022/04/14 06:25:12;;;;;;;2.50;2.40;;;18.60;44.70;;;;;;5064418;28;20433;-57
2022/04/14 06:27:41;;;;;;;2.10;2.00;;;18.60;44.70;;;;;;5061426;28;20775;-57
2022/04/14 06:30:09;;;;;;;2.30;2.10;;;18.60;44.70;;;;;;5056563;28;20428;-57
2022/04/14 06:32:35;;;;;;;2.37;2.27;;;18.60;44.70;;;;;;5058132;28;20430;-57
2022/04/14 06:35:00;;;;;;;2.37;2.27;;;18.60;44.70;;;;;;5064368;28;20432;-57
2022/04/14 06:37:26;;;;;;;2.57;2.47;;;18.60;44.70;;;;;;5053392;28;21037;-57
2022/04/14 06:39:51;;;;;;;3.20;2.90;;;18.60;44.70;;;;;;5063258;28;20217;-56
2022/04/14 06:42:21;;;;;;;3.63;2.40;;;18.60;44.70;;;;;;5063752;28;20236;-56
2022/04/14 06:44:46;;;;;;;2.27;2.17;;;18.60;44.70;;;;;;5058559;28;20217;-57
2022/04/14 06:47:13;;;;;;;2.63;2.43;;;18.60;44.70;;;;;;5060166;28;20430;-57
2022/04/14 06:49:38;;;;;;;2.80;2.57;;;18.60;44.70;;;;;;5064669;28;20221;-57
2022/04/14 06:52:04;;;;;;;3.20;2.80;;;18.60;44.70;;;;;;5054193;28;21232;-56
2022/04/14 06:54:30;;;;;;;2.57;2.47;;;18.60;44.70;;;;;;5060285;28;20639;-57
2022/04/14 06:56:55;;;;;;;2.60;2.40;;;18.60;44.70;;;;;;5059939;28;20238;-56
2022/04/14 06:59:21;;;;;;;3.00;2.80;;;18.60;44.70;;;;;;5058665;28;20553;-56
2022/04/14 07:01:46;;;;;;;3.03;2.83;;;18.60;45.50;;;;;;5062044;28;20681;-56
2022/04/14 07:04:12;;;;;;;3.20;3.00;;;18.60;44.80;;;;;;5059814;28;20253;-56
2022/04/14 07:06:38;;;;;;;3.70;3.03;;;18.60;44.80;;;;;;5061398;28;20226;-56
2022/04/14 07:09:03;;;;;;;3.47;3.17;;;18.60;44.70;;;;;;5056859;28;20221;-57
2022/04/14 07:11:29;;;;;;;2.90;2.70;;;18.60;44.70;;;;;;5059202;28;20225;-56
2022/04/14 07:13:55;;;;;;;2.80;2.60;;;18.60;44.80;;;;;;5058118;28;20638;-57
2022/04/14 07:16:20;;;;;;;3.00;2.80;;;18.60;44.70;;;;;;5057079;28;20234;-57
2022/04/14 07:18:46;;;;;;;3.47;3.27;;;18.60;44.70;;;;;;5062112;28;20639;-57
2022/04/14 07:21:11;;;;;;;2.97;2.77;;;18.60;44.70;;;;;;5060266;28;20226;-56
2022/04/14 07:23:38;;;;;;;3.07;2.87;;;18.60;44.80;;;;;;5040362;28;20242;-57
2022/04/14 07:26:04;;;;;;;8.80;3.00;;;18.60;44.80;;;;;;5058539;28;20230;-56
2022/04/14 07:28:29;;;;;;;3.53;3.23;;;18.60;44.80;;;;;;5058113;28;20445;-56
2022/04/14 07:30:55;;;;;;;3.30;3.10;;;18.60;44.80;;;;;;5065390;28;20221;-58
2022/04/14 07:33:21;;;;;;;2.87;2.77;;;18.60;44.80;;;;;;5067297;28;20214;-56
2022/04/14 07:35:48;;;;;;;3.27;3.07;;;18.60;44.80;;;;;;5065784;28;20280;-57
2022/04/14 07:38:14;;;;;;;3.10;2.90;;;18.60;44.80;;;;;;5061031;28;20233;-57
2022/04/14 07:40:40;;;;;;;3.47;3.17;;;18.60;44.80;;;;;;5064981;28;20417;-56
2022/04/14 07:43:05;;;;;;;3.00;2.80;;;18.60;44.90;;;;;;5065004;28;20234;-56
2022/04/14 07:45:31;;;;;;;4.40;2.70;;;18.60;44.80;;;;;;5061887;28;20317;-57
2022/04/14 07:47:56;;;;;;;3.20;3.00;;;18.60;44.80;;;;;;5064595;28;20694;-56
2022/04/14 07:50:22;;;;;;;3.13;2.93;;;18.60;44.90;;;;;;5062225;28;21855;-56
2022/04/14 07:52:56;;;;;;;3.63;3.33;;;18.60;44.90;;;;;;5059527;28;20581;-57
2022/04/14 07:55:24;;;;;;;2.97;2.77;;;18.60;44.90;;;;;;5061556;28;20609;-57
2022/04/14 07:57:52;;;;;;;3.00;2.80;;;18.60;44.80;;;;;;5062328;28;20491;-57
2022/04/14 08:00:18;;;;;;;3.40;3.00;;;18.60;44.90;;;;;;5060221;28;20454;-56
2022/04/14 08:02:56;;;;;;;3.03;2.77;;;18.60;44.90;;;;;;5064633;28;20429;-58
2022/04/14 08:05:46;;;;;;;2.60;2.40;;;18.60;44.90;;;;;;5060912;28;20963;-56
2022/04/14 08:08:13;;;;;;;3.00;2.80;;;18.60;44.80;;;;;;5058094;28;20429;-56
2022/04/14 08:10:44;;;;;;;4.53;3.17;;;18.60;44.90;;;;;;5064234;28;20432;-56
2022/04/14 08:13:09;;;;;;;2.90;2.70;;;18.60;44.80;;;;;;5061577;28;20527;-56
2022/04/14 08:15:36;;;;;;;2.70;2.50;;;18.60;44.80;;;;;;5065889;28;23548;-57
2022/04/14 08:18:03;;;;;;;2.67;2.47;;;18.60;44.90;;;;;;5064810;28;20226;-56
2022/04/14 08:20:29;;;;;;;2.87;2.67;;;18.60;44.80;;;;;;5062587;28;20789;-57
2022/04/14 08:22:59;;;;;;;5.10;2.63;;;18.60;44.80;;;;;;5057572;28;20426;-56
2022/04/14 08:25:27;;;;;;;2.57;2.27;;;18.60;44.70;;;;;;5066490;28;20430;-56
2022/04/14 08:27:54;;;;;;;2.27;2.17;;;18.60;44.80;;;;;;5060310;28;20426;-56
2022/04/14 08:30:22;;;;;;;2.67;2.47;;;18.60;44.70;;;;;;5060555;28;20447;-56
2022/04/14 08:32:49;;;;;;;3.20;2.90;;;18.60;44.80;;;;;;5066290;28;20930;-56
2022/04/14 08:35:16;;;;;;;2.20;2.10;;;18.70;44.80;;;;;;5058861;28;20516;-56
2022/04/14 08:37:42;;;;;;;2.80;2.60;;;18.70;44.80;;;;;;5064938;28;20516;-56
2022/04/14 08:40:11;;;;;;;2.50;2.40;;;18.60;44.70;;;;;;5062380;28;20486;-57
2022/04/14 08:42:39;;;;;;;2.97;2.70;;;18.70;44.80;;;;;;5065032;28;20409;-56
2022/04/14 08:45:11;;;;;;;2.00;1.90;;;18.70;44.80;;;;;;5059278;28;20426;-56
2022/04/14 08:47:41;;;;;;;3.10;2.90;;;18.70;44.80;;;;;;5064571;28;20981;-56
2022/04/14 08:50:15;;;;;;;3.00;2.80;;;18.70;44.80;;;;;;5056192;28;20418;-56
2022/04/14 08:52:40;;;;;;;2.50;2.40;;;18.70;44.80;;;;;;5066312;28;20417;-57
2022/04/14 08:55:11;;;;;;;2.23;2.13;;;18.70;44.80;;;;;;5062297;28;20459;-56
2022/04/14 08:57:41;;;;;;;2.60;2.40;;;18.70;44.80;;;;;;5060616;28;20239;-57
2022/04/14 09:00:09;;;;;;;2.20;2.10;;;18.70;44.80;;;;;;5055171;28;20458;-54
2022/04/14 09:02:35;;;;;;;3.57;3.27;;;18.70;44.80;;;;;;5063184;28;20436;-56
2022/04/14 09:05:02;;;;;;;2.90;2.70;;;18.70;44.80;;;;;;5062163;28;20454;-57
2022/04/14 09:07:28;;;;;;;2.40;2.13;;;18.70;44.70;;;;;;5058466;28;20453;-57
2022/04/14 09:09:54;;;;;;;2.63;2.43;;;18.70;44.80;;;;;;5066354;28;20897;-56
2022/04/14 09:12:19;;;;;;;2.30;2.20;;;18.70;44.80;;;;;;5058128;28;20917;-56
2022/04/14 09:14:46;;;;;;;2.30;2.20;;;18.70;44.70;;;;;;5060324;28;20214;-57
2022/04/14 09:17:12;;;;;;;2.70;2.50;;;18.70;44.80;;;;;;5062537;28;20235;-56
2022/04/14 09:19:38;;;;;;;2.40;2.20;;;18.70;44.70;;;;;;5065628;28;20440;-57
2022/04/14 09:22:11;;;;;;;2.50;2.40;;;18.70;44.80;;;;;;5056183;28;20320;-56
2022/04/14 09:24:43;;;;;;;2.50;2.30;;;18.70;44.80;;;;;;5042404;28;20455;-56
2022/04/14 09:27:23;;;;;;;4.40;2.40;;;18.70;44.70;;;;;;5057469;28;20476;-57
2022/04/14 09:29:49;;;;;;;2.47;2.37;;;18.70;44.70;;;;;;5056593;28;21279;-56
2022/04/14 09:32:30;;;;;;;2.50;2.30;;;18.70;44.80;;;;;;5065508;28;20433;-56
2022/04/14 09:34:56;;;;;;;3.23;3.00;;;18.70;44.80;;;;;;5060641;28;20458;-56
2022/04/14 09:37:23;;;;;;;2.43;2.33;;;18.70;44.70;;;;;;5063062;28;20463;-56
2022/04/14 09:39:57;;;;;;;2.90;2.70;;;18.70;44.80;;;;;;5063405;28;20565;-56
2022/04/14 09:42:28;;;;;;;2.50;2.30;;;18.70;44.70;;;;;;5059924;28;20946;-55
2022/04/14 09:44:54;;;;;;;2.13;2.03;;;18.70;44.70;;;;;;5054615;28;20984;-56
2022/04/14 09:47:25;;;;;;;2.40;2.30;;;18.70;44.70;;;;;;5059721;28;20535;-56
2022/04/14 09:49:50;;;;;;;2.70;2.50;;;18.70;44.80;;;;;;5059393;28;20451;-56
2022/04/14 09:52:16;;;;;;;2.60;2.40;;;18.70;44.70;;;;;;5057668;28;20925;-57
2022/04/14 09:54:41;;;;;;;2.43;2.27;;;18.70;44.70;;;;;;5062016;28;20229;-56
2022/04/14 09:57:11;;;;;;;2.77;2.57;;;18.70;44.80;;;;;;5062518;28;20234;-55
2022/04/14 09:59:40;;;;;;;2.43;2.33;;;18.70;44.80;;;;;;5060488;28;20308;-56
2022/04/14 10:02:17;;;;;;;4.17;2.80;;;18.70;44.80;;;;;;5060707;28;20434;-56
2022/04/14 10:04:47;;;;;;;2.40;2.30;;;18.70;44.80;;;;;;5060620;28;20447;-57
2022/04/14 10:07:15;;;;;;;2.97;2.77;;;18.70;44.80;;;;;;5061009;28;20463;-56
2022/04/14 10:09:48;;;;;;;2.30;2.20;;;18.70;44.80;;;;;;5061423;28;20460;-56
2022/04/14 10:12:23;;;;;;;2.97;2.77;;;18.70;44.80;;;;;;5057471;28;20468;-56
2022/04/14 10:15:04;;;;;;;2.50;2.40;;;18.70;44.80;;;;;;5057947;28;20418;-56
2022/04/14 10:17:38;;;;;;;2.60;2.50;;;18.70;44.80;;;;;;5063254;28;20434;-56
2022/04/14 10:20:14;;;;;;;3.00;2.80;;;18.70;44.80;;;;;;5055354;28;20466;-55
2022/04/14 10:22:40;;;;;;;3.30;2.97;;;18.70;44.80;;;;;;5040428;28;20476;-56
2022/04/14 10:25:06;;;;;;;2.67;2.57;;;18.70;44.80;;;;;;5059570;28;20415;-55
2022/04/14 10:27:33;;;;;;;2.87;2.67;;;18.70;44.80;;;;;;5061000;28;20226;-56
2022/04/14 10:29:59;;;;;;;3.07;2.87;;;18.70;44.80;;;;;;5059686;28;20305;-55
2022/04/14 10:32:26;;;;;;;2.80;2.60;;;18.70;44.80;;;;;;5064527;28;20591;-56
2022/04/14 10:34:52;;;;;;;2.43;2.33;;;18.70;44.80;;;;;;5059283;28;20450;-56
2022/04/14 10:37:42;;;;;;;3.63;3.00;;;18.70;44.80;;;;;;5059092;28;20800;-56
2022/04/14 10:40:09;;;;;;;2.97;2.77;;;18.70;44.80;;;;;;5060269;28;20505;-55
2022/04/14 10:42:36;;;;;;;2.87;2.67;;;18.70;44.80;;;;;;5057793;28;20421;-56
2022/04/14 10:45:18;;;;;;;2.80;2.60;;;18.70;44.80;;;;;;5063907;28;20967;-55
2022/04/14 10:47:43;;;;;;;3.60;3.40;;;18.70;44.90;;;;;;5065009;28;20794;-56
2022/04/14 10:50:38;;;;;;;2.80;2.70;;;18.70;44.80;;;;;;5064702;28;20455;-55
2022/04/14 10:53:21;;;;;;;2.80;2.70;;;18.70;44.90;;;;;;5048401;28;20246;-60
2022/04/14 10:55:49;;;;;;;3.10;2.90;;;18.70;44.90;;;;;;5055917;28;20449;-60
2022/04/14 10:58:26;;;;;;;3.03;2.90;;;18.60;44.80;;;;;;5059814;28;20463;-64
2022/04/14 11:00:52;;;;;;;3.20;3.00;;;18.70;44.90;;;;;;5057743;28;20535;-60
2022/04/14 11:03:18;;;;;;;3.40;3.10;;;18.70;44.90;;;;;;5046367;28;21010;-60
2022/04/14 11:05:51;;;;;;;2.90;2.80;;;18.70;44.90;;;;;;5060952;28;20225;-61
2022/04/14 11:08:24;;;;;;;2.80;2.60;;;18.70;44.80;;;;;;5056968;28;20446;-61
2022/04/14 11:11:16;;;;;;;3.37;3.07;;;18.70;44.80;;;;;;5066966;28;20467;-60
2022/04/14 11:13:50;;;;;;;3.00;2.80;;;18.70;44.80;;;;;;5054609;28;20428;-61
2022/04/14 11:16:42;;;;;;;3.20;3.00;;;18.70;44.80;;;;;;5060957;28;20433;-61
2022/04/14 11:19:19;;;;;;;2.70;2.60;;;18.70;44.90;;;;;;5058843;28;20423;-60
2022/04/14 11:22:01;;;;;;;2.73;2.63;;;18.70;44.90;;;;;;5056954;28;20457;-61
2022/04/14 11:24:40;;;;;;;2.90;2.80;;;18.70;44.90;;;;;;5061666;28;20447;-61
2022/04/14 11:27:17;;;;;;;3.10;2.90;;;18.70;44.90;;;;;;5058230;28;20921;-60
2022/04/14 11:29:49;;;;;;;2.93;2.73;;;18.70;44.90;;;;;;5060013;28;20465;-60
2022/04/14 11:32:34;;;;;;;2.50;2.40;;;18.70;44.90;;;;;;5062683;28;20918;-62
2022/04/14 11:35:13;;;;;;;3.27;3.07;;;18.70;44.90;;;;;;5060437;28;20430;-60
2022/04/14 11:37:43;;;;;;;3.27;2.50;;;18.70;44.90;;;;;;5059165;28;20465;-61
2022/04/14 11:40:21;;;;;;;3.10;2.90;;;18.70;45.00;;;;;;5060357;28;20413;-64
2022/04/14 11:42:52;;;;;;;3.50;3.23;;;18.70;45.00;;;;;;5053537;28;20421;-62
2022/04/14 11:45:22;;;;;;;2.90;2.70;;;18.70;44.90;;;;;;5058421;28;20470;-60
2022/04/14 11:47:49;;;;;;;2.83;2.73;;;18.70;45.00;;;;;;5059631;28;20429;-60
2022/04/14 11:50:22;;;;;;;3.47;3.27;;;18.70;44.90;;;;;;5060160;28;20451;-60
2022/04/14 11:52:49;;;;;;;3.07;2.87;;;18.70;44.90;;;;;;5040716;28;20413;-60
2022/04/14 11:55:33;;;;;;;3.30;3.10;;;18.70;44.90;;;;;;5057844;28;20463;-60
2022/04/14 11:58:03;;;;;;;2.90;2.80;;;18.70;44.90;;;;;;5055292;28;20456;-60
2022/04/14 12:00:28;;;;;;;2.83;2.70;;;18.70;44.90;;;;;;5063500;28;20456;-60
2022/04/14 12:02:57;;;;;;;3.17;2.97;;;18.70;44.90;;;;;;5059583;28;20482;-61
2022/04/14 12:05:23;;;;;;;3.03;2.83;;;18.70;44.90;;;;;;5061739;28;20245;-61
2022/04/14 12:07:49;;;;;;;2.70;2.50;;;18.70;44.90;;;;;;5038545;28;20458;-60
2022/04/14 12:10:14;;;;;;;3.73;3.53;;;18.70;44.90;;;;;;5041966;28;20272;-62
2022/04/14 12:12:40;;;;;;;3.13;2.93;;;18.70;45.00;;;;;;5037067;28;20219;-61
2022/04/14 12:15:06;;;;;;;3.27;3.07;;;18.70;44.90;;;;;;5036929;28;20266;-61
2022/04/14 12:17:35;;;;;;;3.17;2.87;;;18.70;45.00;;;;;;5040875;28;20593;-62
2022/04/14 12:20:04;;;;;;;3.13;2.93;;;18.70;44.90;;;;;;5035061;28;20435;-61
2022/04/14 12:22:33;;;;;;;3.03;2.80;;;18.70;45.00;;;;;;5045074;28;20456;-58
2022/04/14 12:25:02;;;;;;;3.00;2.87;;;18.60;44.90;;;;;;5043976;28;20461;-57
2022/04/14 12:27:37;;;;;;;2.63;2.53;;;18.60;44.90;;;;;;5037557;28;20947;-57
2022/04/14 12:30:09;;;;;;;3.10;2.73;;;18.70;45.00;;;;;;5044731;28;20517;-58
2022/04/14 12:32:34;;;;;;;3.20;3.00;;;18.70;45.00;;;;;;5045545;28;20460;-57
2022/04/14 12:35:00;;;;;;;3.30;3.10;;;18.60;44.90;;;;;;5041316;28;20457;-57
2022/04/14 12:37:40;;;;;;;3.00;2.80;;;18.60;44.90;;;;;;5043489;28;20238;-57
2022/04/14 12:40:13;;;;;;;3.40;3.10;;;18.60;44.90;;;;;;5042793;28;20702;-57
2022/04/14 12:42:39;;;;;;;3.30;3.10;;;18.60;45.00;;;;;;5042216;28;20411;-57
2022/04/14 12:45:07;;;;;;;3.03;2.83;;;18.60;45.00;;;;;;5043791;28;20542;-58
2022/04/14 12:47:33;;;;;;;3.20;3.00;;;18.60;45.00;;;;;;5046585;28;20430;-57
2022/04/14 12:50:00;;;;;;;3.20;2.90;;;18.60;45.10;;;;;;5040901;28;20497;-57